Tiempo atmosférico en la estación meteorológica de Aliseda, Cáceres (321 m.)



Fecha
DESCASC
Temp. máxima en grados centígrados (hora)
DESCASC
Temp. mínima en grados centígrados (hora)
DESCASC
Temp. media en grados centígrados
DESCASC
Racha de viento máxima en m/sg (hora)
DESCASC
Velocidad máxima media en intervalos de 10 minutos(hora)
DESCASC
Precipitaciones diarias en mm
DESCASC
Precipitaciones de 00:00 a 06:00 en mm
DESCASC
Precipitaciones de 06:00 a 12:00 en mm
DESCASC
Precipitaciones de 12:00 a 18:00 en mm
DESCASC
Precipitaciones de 18:00 a 24:00 en mm
DESCASC
14-12-2019 14.2 (15:40) 10.5 (09:30) 12.3 8.33 (13:20) 4.72 (02:30) 0 0 0 0 0
13-12-2019 15.8 (14:10) 11.6 (23:59) 13.7 13.33 (00:30) 8.89 (00:30) 0 0 0 0 0
12-12-2019 13.7 (22:50) 7 (01:10) 10.3 14.17 (23:59) 8.61 (22:10) 0 0 0 0 0
11-12-2019 13.3 (14:20) 3.1 (00:00) 8.2 9.44 (15:50) 6.67 (09:50) 0.8 0 0.8 0 0
10-12-2019 10.8 (16:30) 2.2 (00:00) 6.5 5 (05:20) 2.78 (05:10) 0 0 0 0 0
09-12-2019 12.6 (15:20) 5.6 (00:00) 9.1 4.17 (02:40) 2.5 (02:40) 0.2 0.2 0 0 0
08-12-2019 12.5 (15:10) 2.7 (00:00) 7.6 5.56 (20:40) 4.17 (20:30) 0 0 0 0 0
07-12-2019 14.7 (16:10) 3.8 (00:00) 9.2 4.17 (01:30) 2.78 (01:30) 0 0 0 0 0
06-12-2019 15.5 (15:30) 4.9 (00:00) 10.2 5.83 (11:30) 3.06 (12:10) 0 0 0 0 0
05-12-2019 14.8 (15:50) 4.1 (00:00) 9.5 7.78 (16:10) 4.44 (16:10) 0 0 0 0 0
04-12-2019 13.8 (16:40) 3.3 (00:00) 8.6 5.83 (14:40) 3.33 (16:50) 0 0 0 0 0
03-12-2019 12.9 (15:30) 3.1 (00:00) 8 6.67 (15:00) 3.61 (14:50) 0 0 0 0 0
02-12-2019 13.6 (15:40) 7 (00:00) 10.3 12.5 (13:30) 6.39 (14:30) 0 0 0 0 0
01-12-2019 13.5 (13:00) 7 (00:00) 10.3 10.83 (14:00) 5.28 (00:50) 6.4 0.4 0.4 5.6 0
30-11-2019 15.7 (13:40) 10.2 (00:00) 12.9 9.72 (08:10) 6.67 (09:00) 3.6 0 0 3.4 0.2
29-11-2019 16.5 (16:20) 13.4 (00:00) 14.9 9.72 (08:00) 6.39 (02:10) 0 0 0 0 0
28-11-2019 15.9 (16:40) 10.4 (00:00) 13.1 11.39 (11:10) 7.5 (11:10) 0 0 0 0 0
27-11-2019 15.4 (14:00) 11 (00:00) 13.2 8.61 (14:20) 5.28 (12:00) 0.6 0.6 0 0 0
26-11-2019 16.1 (13:20) 13.2 (00:00) 14.7 13.06 (13:40) 6.94 (04:10) 3.4 0 0.2 2.8 0.4
25-11-2019 18 (15:30) 12.2 (00:00) 15.1 14.72 (03:00) 10 (03:00) 0.4 0.2 0.2 0 0
24-11-2019 14.2 (15:30) 6.6 (00:00) 10.4 10.83 (21:30) 7.22 (21:20) 0 0 0 0 0
23-11-2019 14.3 (16:00) 8.3 (00:00) 11.3 15.28 (00:40) 8.61 (00:40) 0.6 0.6 0 0 0
22-11-2019 16.8 (14:10) 10.8 (00:00) 13.8 16.94 (14:50) 10.56 (14:50) 23.8 1.2 15 7.2 0.4
21-11-2019 13.7 (14:50) 9.1 (00:00) 11.4 8.33 (00:20) 5.28 (01:40) 4.8 0.6 1.8 2.4 0
20-11-2019 9.8 (16:50) 7.8 (00:00) 8.8 9.44 (14:50) 5.83 (01:00) 8.6 2.2 5.4 0.8 0.2
19-11-2019 11.9 (13:40) 1.6 (00:00) 6.7 6.39 (23:59) 4.17 (22:40) 0 0 0 0 0
18-11-2019 14.3 (16:10) 5 (00:00) 9.7 7.22 (03:40) 5 (03:40) 0 0 0 0 0
17-11-2019 14.8 (15:50) 6.8 (00:00) 10.8 9.72 (20:10) 5.83 (19:20) 4.2 1.2 0.8 2.2 0
16-11-2019 13.1 (17:00) 2.4 (00:00) 7.8 7.5 (15:50) 4.17 (15:20) 0 0 0 0 0

Gráficas

Temp. máximas Temp. mínimas Temp. medias Precipitaciones Rachas de viento máximas Velocidades máximas media en intervalos de 10 minutos

Datos horarios

Fecha y hora oficial Temperatura (ºC) Velocidad del viento (km/h) Dirección del viento Racha (km/h) Dirección de racha Precipitación (mm) Presión (hPa) Tendencia (hPa) Humedad (%)
2019-12-15 23:00:00 11.7 9 Este 36 Sudeste 0.2 -- -- 91
2019-12-15 22:00:00 12.1 11 Este 29 Sudeste 0 -- -- 89
2019-12-15 21:00:00 12.1 5 Norte 22 Este 0 -- -- 90
2019-12-15 20:00:00 12.2 6 Noroeste 27 Sudoeste 0 -- -- 91
2019-12-15 19:00:00 12 12 Sur 39 Sur 0 -- -- 92
2019-12-15 18:00:00 12 11 Sur 29 Sur 0 -- -- 92
2019-12-15 17:00:00 12.2 14 Sur 27 Sur 0.2 -- -- 92
2019-12-15 16:00:00 12.3 14 Sur 27 Sur 0 -- -- 91
2019-12-15 15:00:00 12.1 13 Sur 26 Sur 0.2 -- -- 93
2019-12-15 14:00:00 12 10 Sur 28 Sur 0.2 -- -- 92
2019-12-15 13:00:00 11.6 11 Sur 33 Sur 0.2 -- -- 92
2019-12-15 12:00:00 11.4 18 Sur 33 Sur 0 -- -- 93
2019-12-15 11:00:00 11.2 15 Sur 33 Sur 0.2 -- -- 93
2019-12-15 10:00:00 11.1 14 Sur 30 Sur 0 -- -- 94
2019-12-15 09:00:00 10.8 13 Sur 29 Sur 0 -- -- 94
2019-12-15 08:00:00 10.9 12 Sur 31 Sur 0 -- -- 94
2019-12-15 07:00:00 10.8 12 Sur 24 Sudoeste 0.2 -- -- 94
2019-12-15 06:00:00 11 8 Sudoeste 23 Sudoeste 0.4 -- -- 95
2019-12-15 05:00:00 11.2 8 Sudoeste 24 Sur 0.2 -- -- 94
2019-12-15 04:00:00 11.3 4 Sur 15 Sur 0 -- -- 93
2019-12-15 03:00:00 11.4 4 Sudoeste 17 Sur 0 -- -- 91
2019-12-15 02:00:00 11.7 7 Sudoeste 19 Sur 0 -- -- 90
2019-12-15 01:00:00 11.9 8 Sudoeste 18 Sur 0 -- -- 89
2019-12-15 00:00:00 12.1 10 Sudoeste 21 Sur 0 -- -- 88
2019-12-14 23:00:00 12.2 9 Sudoeste 21 Sur 0 -- -- 87
2019-12-14 22:00:00 12.3 9 Sudoeste 24 Sur 0 -- -- 87
2019-12-14 21:00:00 12.4 14 Sur 24 Sur 0 -- -- 87
2019-12-14 20:00:00 12.4 12 Sur 21 Sur 0 -- -- 86
2019-12-14 19:00:00 12.3 12 Sur 24 Sudoeste 0 -- -- 87
2019-12-14 18:00:00 12.8 12 Sur 25 Sudoeste 0 -- -- 82
2019-12-14 17:00:00 13.4 9 Sudoeste 23 Sudoeste 0 -- -- 77
2019-12-14 16:00:00 13.8 13 Sudoeste 19 Sudoeste 0 -- -- 76
2019-12-14 15:00:00 14.1 13 Sudoeste 23 Oeste 0 -- -- 70
2019-12-14 14:00:00 13.8 9 Oeste 30 Oeste 0 -- -- 75
2019-12-14 13:00:00 13.5 13 Oeste 26 Oeste 0 -- -- 78
2019-12-14 12:00:00 12.7 12 Oeste 20 Oeste 0 -- -- 80
2019-12-14 11:00:00 12 8 Sudoeste 20 Sudoeste 0 -- -- 85
2019-12-14 10:00:00 10.6 14 Sudoeste 21 Sudoeste 0 -- -- 92
2019-12-14 09:00:00 10.7 12 Sudoeste 18 Sudoeste 0 -- -- 89
2019-12-14 08:00:00 11.4 8 Sudoeste 17 Sudoeste 0 -- -- 87
2019-12-14 07:00:00 11.8 12 Sudoeste 21 Sudoeste 0 -- -- 84
2019-12-14 06:00:00 11.9 16 Sudoeste 23 Sudoeste 0 -- -- 79
2019-12-14 05:00:00 11.5 16 Oeste 25 Sudoeste 0 -- -- 82
2019-12-14 04:00:00 11.3 14 Oeste 22 Oeste 0 -- -- 87
2019-12-14 03:00:00 11.6 11 Oeste 25 Sudoeste 0 -- -- 86
2019-12-14 02:00:00 11.8 12 Oeste 24 Oeste 0 -- -- 85
2019-12-14 01:00:00 12.1 12 Oeste 21 Oeste 0 -- -- 85
2019-12-14 00:00:00 11.6 12 Oeste 33 Oeste 0 -- -- 87
2019-12-13 23:00:00 12.4 17 Sudoeste 29 Oeste 0 -- -- 87
2019-12-13 22:00:00 12.3 14 Sudoeste 26 Sudoeste 0 -- -- 88
2019-12-13 21:00:00 12.4 17 Sudoeste 29 Sudoeste 0 -- -- 87
2019-12-13 20:00:00 12.4 17 Sudoeste 31 Oeste 0 -- -- 86
2019-12-13 19:00:00 13 14 Sudoeste 28 Oeste 0 -- -- 84
2019-12-13 18:00:00 13.4 14 Oeste 33 Oeste 0 -- -- 82
2019-12-13 17:00:00 14.6 18 Oeste 40 Oeste 0 -- -- 78
2019-12-13 16:00:00 15.3 27 Oeste 38 Oeste 0 -- -- 76
2019-12-13 15:00:00 15.2 20 Oeste 35 Oeste 0 -- -- 76
2019-12-13 14:00:00 15.4 17 Oeste 43 Oeste 0 -- -- 76
2019-12-13 13:00:00 15.3 27 Oeste 41 Oeste 0 -- -- 75
2019-12-13 12:00:00 15.3 19 Oeste 34 Oeste 0 -- -- 74
2019-12-13 11:00:00 14.1 14 Oeste 40 Sudoeste 0 -- -- 81
2019-12-13 10:00:00 13.1 15 Oeste 40 Sudoeste 0 -- -- 87
2019-12-13 09:00:00 13 19 Sudoeste 35 Oeste 0 -- -- 87
2019-12-13 08:00:00 12.8 21 Sudoeste 43 Oeste 0 -- -- 85
2019-12-13 07:00:00 12.6 23 Oeste 47 Sudoeste 0 -- -- 84
2019-12-13 06:00:00 12.4 17 Oeste 41 Oeste 0 -- -- 83
2019-12-13 05:00:00 12.7 27 Sudoeste 44 Sudoeste 0 -- -- 82
2019-12-13 04:00:00 13.2 27 Oeste 44 Oeste 0 -- -- 83
2019-12-13 03:00:00 13.3 27 Oeste 46 Oeste 0 -- -- 85
2019-12-13 02:00:00 13.4 26 Oeste 46 Oeste 0 -- -- 85
2019-12-13 01:00:00 13.9 30 Oeste 48 Oeste 0 -- -- 84
2019-12-13 00:00:00 13.7 30 Oeste 51 Oeste 0 -- -- 85
2019-12-12 23:00:00 13.5 27 Oeste 48 Oeste 0 -- -- 86
2019-12-12 22:00:00 13.6 30 Oeste 47 Oeste 0 -- -- 85
2019-12-12 21:00:00 13.3 22 Oeste 37 Sudoeste 0 -- -- 85
2019-12-12 20:00:00 12.3 22 Sudoeste 41 Sudoeste 0 -- -- 87
2019-12-12 19:00:00 12.1 24 Sudoeste 39 Sudoeste 0 -- -- 86
2019-12-12 18:00:00 11.9 24 Sudoeste 43 Sudoeste 0 -- -- 86
2019-12-12 17:00:00 12.1 18 Sudoeste 35 Oeste 0 -- -- 81
2019-12-12 16:00:00 11.7 17 Sudoeste 46 Oeste 0 -- -- 81
2019-12-12 15:00:00 12.1 19 Oeste 50 Oeste 0 -- -- 78
2019-12-12 14:00:00 12 23 Oeste 42 Oeste 0 -- -- 78
2019-12-12 13:00:00 12.1 24 Oeste 41 Oeste 0 -- -- 77
2019-12-12 12:00:00 11.5 19 Oeste 37 Sudoeste 0 -- -- 78
2019-12-12 11:00:00 10.7 20 Oeste 33 Oeste 0 -- -- 80
2019-12-12 10:00:00 9.1 17 Sudoeste 30 Sudoeste 0 -- -- 86
2019-12-12 09:00:00 8.8 16 Sudoeste 27 Sudoeste 0 -- -- 88
2019-12-12 08:00:00 9.1 12 Sudoeste 26 Oeste 0 -- -- 85
2019-12-12 07:00:00 9.3 13 Oeste 23 Oeste 0 -- -- 86
2019-12-12 06:00:00 8.7 13 Sudoeste 24 Sudoeste 0 -- -- 83
2019-12-12 05:00:00 8.6 12 Sudoeste 21 Oeste 0 -- -- 83
2019-12-12 04:00:00 8.1 7 Oeste 20 Sudoeste 0 -- -- 81
2019-12-12 03:00:00 7.9 10 Sudoeste 24 Oeste 0 -- -- 80
2019-12-12 02:00:00 7.6 13 Oeste 19 Oeste 0 -- -- 80
2019-12-12 01:00:00 7.3 12 Sudoeste 22 Oeste 0 -- -- 80
2019-12-12 00:00:00 7.1 15 Sudoeste 23 Sudoeste 0 -- -- 78
2019-12-11 23:00:00 6.8 10 Sudoeste 20 Oeste 0 -- -- 73
2019-12-11 22:00:00 6.7 9 Sudoeste 14 Oeste 0 -- -- 73
2019-12-11 21:00:00 6.8 2 Sudoeste 12 Noroeste 0 -- -- 72
2019-12-11 20:00:00 7.9 3 Sudoeste 18 Noroeste 0 -- -- 67
2019-12-11 19:00:00 9.2 4 Norte 15 Noroeste 0 -- -- 65
2019-12-11 18:00:00 10.5 6 Oeste 30 Noroeste 0 -- -- 60
2019-12-11 17:00:00 12.4 15 Noroeste 32 Noroeste 0 -- -- 54
2019-12-11 16:00:00 13.2 19 Noroeste 34 Noroeste 0 -- -- 53
2019-12-11 15:00:00 13.1 17 Noroeste 30 Noroeste 0 -- -- 60
2019-12-11 14:00:00 12.8 14 Noroeste 24 Noroeste 0 -- -- 73
2019-12-11 13:00:00 11.5 10 Norte 22 Noroeste 0 -- -- 82
2019-12-11 12:00:00 10 10 Oeste 22 Oeste 0 -- -- 96
2019-12-11 11:00:00 8.6 0 Calma 31 Sudoeste 0 -- -- 97
2019-12-11 10:00:00 8 23 Sudoeste 32 Sudoeste 0.8 -- -- 95
2019-12-11 09:00:00 8.4 14 Sudoeste 22 Sudoeste 0 -- -- 92
2019-12-11 08:00:00 6.4 10 Oeste 21 Sudoeste 0 -- -- 89
2019-12-11 07:00:00 3.9 4 Este 20 Sur 0 -- -- 99
2019-12-11 06:00:00 3.1 0 Calma 6 Este 0 -- -- 99
2019-12-11 05:00:00 3.3 0 Calma 3 Sudeste 0 -- -- 99
2019-12-11 04:00:00 4 0 Calma 4 Este 0 -- -- 99
2019-12-11 03:00:00 4.8 0 Calma 3 Sudeste 0 -- -- 99
2019-12-11 02:00:00 4.7 2 Este 5 Oeste 0 -- -- 99
2019-12-11 01:00:00 4.5 0 Calma 5 Oeste 0 -- -- 98
2019-12-11 00:00:00 4.5 0 Calma 4 Oeste 0 -- -- 97
2019-12-10 23:00:00 5.4 0 Calma 5 Sur 0 -- -- 96
2019-12-10 22:00:00 5.9 2 Sur 6 Sur 0 -- -- 94
2019-12-10 21:00:00 7.6 0 Calma 7 Sur 0 -- -- 96
2019-12-10 20:00:00 7 3 Sudoeste 6 Sur 0 -- -- 96
2019-12-10 19:00:00 7.1 2 Sur 6 Sur 0 -- -- 93
2019-12-10 18:00:00 9.3 3 Sudoeste 9 Este 0 -- -- 89
2019-12-10 17:00:00 10.7 2 Sudeste 5 Este 0 -- -- 86
2019-12-10 16:00:00 10.5 3 Oeste 8 Oeste 0 -- -- 86
2019-12-10 15:00:00 9.7 0 Calma 8 Noroeste 0 -- -- 90
2019-12-10 14:00:00 9 3 Este 9 Este 0 -- -- 93
2019-12-10 13:00:00 8.3 3 Nordeste 8 Norte 0 -- -- 98
2019-12-10 12:00:00 7.8 3 Nordeste 12 Este 0 -- -- 100
2019-12-10 11:00:00 7.3 6 Este 13 Este 0 -- -- 100
2019-12-10 10:00:00 7 8 Este 12 Este 0 -- -- 100
2019-12-10 09:00:00 6.4 5 Este 11 Este 0 -- -- 100
2019-12-10 08:00:00 6 8 Sudeste 13 Sudeste 0 -- -- 100
2019-12-10 07:00:00 5.5 6 Sudeste 12 Este 0 -- -- 99
2019-12-10 06:00:00 5.8 8 Este 18 Este 0 -- -- 99
2019-12-10 05:00:00 5.4 9 Este 15 Este 0 -- -- 99
2019-12-10 04:00:00 2.6 5 Norte 9 Este 0 -- -- 95
2019-12-10 03:00:00 3.7 0 Calma 5 Sudeste 0 -- -- 96
2019-12-10 02:00:00 4.8 0 Calma 3 Noroeste 0 -- -- 97
2019-12-10 01:00:00 4.8 0 Calma 4 Nordeste 0 -- -- 96
2019-12-10 00:00:00 5.6 0 Calma 3 Oeste 0 -- -- 95
2019-12-09 23:00:00 5.9 2 Sur 5 Sur 0 -- -- 95
2019-12-09 22:00:00 6 0 Calma 5 Sur 0 -- -- 93
2019-12-09 21:00:00 6.2 0 Calma 3 Sudoeste 0 -- -- 91
2019-12-09 20:00:00 7.4 0 Calma 4 Sudoeste 0 -- -- 89
2019-12-09 19:00:00 7.8 3 Sur 7 Sur 0 -- -- 86
2019-12-09 18:00:00 10.1 4 Sudeste 10 Sudeste 0 -- -- 81
2019-12-09 17:00:00 12.3 3 Este 6 Este 0 -- -- 80
2019-12-09 16:00:00 12.5 4 Nordeste 8 Este 0 -- -- 77
2019-12-09 15:00:00 12.3 3 Nordeste 9 Nordeste 0 -- -- 81
2019-12-09 14:00:00 11.6 3 Este 8 Sudeste 0 -- -- 86
2019-12-09 13:00:00 10.4 3 Este 7 Este 0 -- -- 90
2019-12-09 12:00:00 9.3 3 Este 5 Este 0 -- -- 99
2019-12-09 11:00:00 8.7 3 Oeste 6 Noroeste 0 -- -- 98
2019-12-09 10:00:00 8.6 0 Calma 8 Noroeste 0 -- -- 98
2019-12-09 09:00:00 9 4 Noroeste 8 Noroeste 0 -- -- 98
2019-12-09 08:00:00 9.3 4 Sudoeste 10 Oeste 0 -- -- 97
2019-12-09 07:00:00 9.7 2 Norte 10 Oeste 0 -- -- 98
2019-12-09 06:00:00 10.1 4 Oeste 9 Oeste 0 -- -- 97
2019-12-09 05:00:00 10.7 6 Noroeste 13 Noroeste 0 -- -- 98
2019-12-09 04:00:00 11.2 5 Noroeste 13 Noroeste 0 -- -- 98
2019-12-09 03:00:00 11.5 6 Noroeste 15 Noroeste 0 -- -- 99
2019-12-09 02:00:00 11.9 5 Oeste 10 Oeste 0.2 -- -- 98
2019-12-09 01:00:00 12 4 Sudoeste 13 Oeste 0 -- -- 98
2019-12-09 00:00:00 12.4 9 Sudoeste 16 Sudoeste 0 -- -- 97
2019-12-08 23:00:00 11.8 2 Sudoeste 4 Sur 0 -- -- 95
2019-12-08 22:00:00 11.9 2 Este 18 Sudoeste 0 -- -- 95
2019-12-08 21:00:00 12.3 13 Sudoeste 20 Sudoeste 0 -- -- 93
2019-12-08 20:00:00 12.1 13 Sudoeste 19 Sudoeste 0 -- -- 90
2019-12-08 19:00:00 11.9 10 Sudoeste 17 Sudoeste 0 -- -- 89
2019-12-08 18:00:00 12.1 7 Sudoeste 11 Sudoeste 0 -- -- 91
2019-12-08 17:00:00 12.3 0 Calma 4 Noroeste 0 -- -- 91
2019-12-08 16:00:00 12.4 3 Oeste 9 Oeste 0 -- -- 88
2019-12-08 15:00:00 12.4 6 Oeste 15 Oeste 0 -- -- 87
2019-12-08 14:00:00 11.7 6 Oeste 12 Oeste 0 -- -- 86
2019-12-08 13:00:00 10 4 Este 13 Sur 0 -- -- 90
2019-12-08 12:00:00 8.6 2 Norte 5 Nordeste 0 -- -- 95
2019-12-08 11:00:00 6.6 0 Calma 4 Noroeste 0 -- -- 99
2019-12-08 10:00:00 5.6 0 Calma 3 Noroeste 0 -- -- 99
2019-12-08 09:00:00 4 0 Calma 2 Oeste 0 -- -- 99
2019-12-08 08:00:00 3.1 0 Calma 6 Este 0 -- -- 97
2019-12-08 07:00:00 3.1 0 Calma 4 Este 0 -- -- 97
2019-12-08 06:00:00 3 0 Calma 7 Oeste 0 -- -- 96
2019-12-08 05:00:00 4.2 0 Calma 4 Oeste 0 -- -- 97
2019-12-08 04:00:00 4.4 0 Calma 5 Noroeste 0 -- -- 97
2019-12-08 03:00:00 5.1 0 Calma 4 Sur 0 -- -- 97
2019-12-08 02:00:00 4.7 0 Calma 4 Oeste 0 -- -- 95
2019-12-08 01:00:00 5.5 0 Calma 4 Noroeste 0 -- -- 94
2019-12-08 00:00:00 6.6 0 Calma 5 Oeste 0 -- -- 93
2019-12-07 23:00:00 7.5 0 Calma 8 Sur 0 -- -- 92
2019-12-07 22:00:00 7.8 0 Calma 9 Sur 0 -- -- 91
2019-12-07 21:00:00 8.1 3 Sudoeste 8 Sur 0 -- -- 90
2019-12-07 20:00:00 8.4 2 Sudoeste 6 Sur 0 -- -- 90
2019-12-07 19:00:00 8.8 4 Oeste 5 Sudoeste 0 -- -- 89
2019-12-07 18:00:00 10.4 4 Sudoeste 7 Sudoeste 0 -- -- 83
2019-12-07 17:00:00 13.7 4 Oeste 12 Noroeste 0 -- -- 74
2019-12-07 16:00:00 14.5 5 Noroeste 12 Noroeste 0 -- -- 70
2019-12-07 15:00:00 13.9 5 Norte 9 Noroeste 0 -- -- 70
2019-12-07 14:00:00 13.1 2 Este 8 Nordeste 0 -- -- 72
2019-12-07 13:00:00 11.7 3 Norte 9 Nordeste 0 -- -- 79
2019-12-07 12:00:00 10.8 3 Este 6 Nordeste 0 -- -- 79
2019-12-07 11:00:00 8 4 Oeste 10 Oeste 0 -- -- 89
2019-12-07 10:00:00 6.1 0 Calma 5 Oeste 0 -- -- 97
2019-12-07 09:00:00 4 0 Calma 6 Sur 0 -- -- 96
2019-12-07 08:00:00 4.3 0 Calma 8 Oeste 0 -- -- 95
2019-12-07 07:00:00 4.3 3 Noroeste 7 Oeste 0 -- -- 95
2019-12-07 06:00:00 4.5 0 Calma 4 Este 0 -- -- 94
2019-12-07 05:00:00 4.7 3 Sudeste 9 Oeste 0 -- -- 94
2019-12-07 04:00:00 4.9 0 Calma 4 Sur 0 -- -- 93
2019-12-07 03:00:00 5.5 0 Calma 8 Sudeste 0 -- -- 89
2019-12-07 02:00:00 8.1 5 Este 15 Sudeste 0 -- -- 86
2019-12-07 01:00:00 7.4 0 Calma 11 Sudeste 0 -- -- 87
2019-12-07 00:00:00 8.4 6 Sudeste 12 Sudeste 0 -- -- 85
2019-12-06 23:00:00 9 5 Sudeste 10 Este 0 -- -- 83
2019-12-06 22:00:00 7.2 0 Calma 8 Sudeste 0 -- -- 87
2019-12-06 21:00:00 10.2 5 Este 8 Este 0 -- -- 78
2019-12-06 20:00:00 10.1 7 Sudeste 9 Sudeste 0 -- -- 78
2019-12-06 19:00:00 10.5 2 Este 7 Este 0 -- -- 77
2019-12-06 18:00:00 12 4 Sudeste 10 Nordeste 0 -- -- 73
2019-12-06 17:00:00 14.4 7 Nordeste 17 Nordeste 0 -- -- 64
2019-12-06 16:00:00 15.2 9 Nordeste 20 Norte 0 -- -- 62
2019-12-06 15:00:00 15.2 10 Nordeste 17 Este 0 -- -- 63
2019-12-06 14:00:00 14.8 8 Nordeste 17 Nordeste 0 -- -- 65
2019-12-06 13:00:00 14.3 9 Este 20 Nordeste 0 -- -- 67
2019-12-06 12:00:00 13.3 7 Nordeste 21 Este 0 -- -- 72
2019-12-06 11:00:00 10.8 2 Este 9 Sudeste 0 -- -- 79
2019-12-06 10:00:00 7.9 0 Calma 12 Este 0 -- -- 89
2019-12-06 09:00:00 6.5 5 Este 8 Sudeste 0 -- -- 94
2019-12-06 08:00:00 5.6 4 Sudoeste 12 Oeste 0 -- -- 94
2019-12-06 07:00:00 6.6 0 Calma 12 Este 0 -- -- 88
2019-12-06 06:00:00 7.8 8 Sudeste 13 Sudeste 0 -- -- 88
2019-12-06 05:00:00 7 4 Este 9 Sudeste 0 -- -- 90
2019-12-06 04:00:00 6.5 6 Sudeste 9 Sudeste 0 -- -- 92
2019-12-06 03:00:00 6.1 3 Sur 6 Sur 0 -- -- 92
2019-12-06 02:00:00 6.3 3 Sudoeste 7 Oeste 0 -- -- 89
2019-12-06 01:00:00 7.9 5 Sudeste 12 Sudeste 0 -- -- 83
2019-12-06 00:00:00 10 7 Sudeste 21 Este 0 -- -- 76
2019-12-05 23:00:00 8.3 3 Sudoeste 16 Sudeste 0 -- -- 83
2019-12-05 22:00:00 8.1 2 Oeste 5 Sudoeste 0 -- -- 84
2019-12-05 21:00:00 10.3 0 Calma 16 Este 0 -- -- 77
2019-12-05 20:00:00 10.4 7 Este 15 Este 0 -- -- 78
2019-12-05 19:00:00 10.5 8 Este 14 Este 0 -- -- 77
2019-12-05 18:00:00 12.3 3 Nordeste 23 Este 0 -- -- 73
2019-12-05 17:00:00 13.7 9 Nordeste 28 Nordeste 0 -- -- 68
2019-12-05 16:00:00 14.7 10 Nordeste 28 Nordeste 0 -- -- 62
2019-12-05 15:00:00 14.5 14 Nordeste 27 Nordeste 0 -- -- 63
2019-12-05 14:00:00 13.8 9 Nordeste 26 Este 0 -- -- 67
2019-12-05 13:00:00 12 9 Nordeste 19 Nordeste 0 -- -- 73
2019-12-05 12:00:00 10.4 4 Norte 11 Nordeste 0 -- -- 74
2019-12-05 11:00:00 8.6 4 Oeste 12 Oeste 0 -- -- 82
2019-12-05 10:00:00 6.5 0 Calma 7 Oeste 0 -- -- 90
2019-12-05 09:00:00 5.1 3 Sur 9 Sudoeste 0 -- -- 91
2019-12-05 08:00:00 4.3 0 Calma 5 Noroeste 0 -- -- 92
2019-12-05 07:00:00 4.6 3 Sudoeste 10 Oeste 0 -- -- 91
2019-12-05 06:00:00 6.1 4 Oeste 13 Sudoeste 0 -- -- 87
2019-12-05 05:00:00 6.5 9 Sudoeste 13 Sudoeste 0 -- -- 87
2019-12-05 04:00:00 7 7 Sudoeste 12 Sudoeste 0 -- -- 85
2019-12-05 03:00:00 7.1 8 Oeste 14 Sudoeste 0 -- -- 85
2019-12-05 02:00:00 7.6 7 Oeste 18 Sudoeste 0 -- -- 83
2019-12-05 01:00:00 7.6 7 Oeste 14 Sudoeste 0 -- -- 84
2019-12-05 00:00:00 7.8 6 Oeste 13 Oeste 0 -- -- 84
2019-12-04 23:00:00 9.1 7 Sudoeste 10 Oeste 0 -- -- 82
2019-12-04 22:00:00 9.2 0 Calma 4 Este 0 -- -- 79
2019-12-04 21:00:00 10.2 0 Calma 8 Nordeste 0 -- -- 77
2019-12-04 20:00:00 10 2 Este 6 Nordeste 0 -- -- 78
2019-12-04 19:00:00 11 2 Este 13 Nordeste 0 -- -- 78
2019-12-04 18:00:00 12.1 5 Nordeste 15 Nordeste 0 -- -- 66
2019-12-04 17:00:00 12.9 10 Nordeste 20 Nordeste 0 -- -- 63
2019-12-04 16:00:00 13.5 11 Nordeste 20 Nordeste 0 -- -- 63
2019-12-04 15:00:00 13.4 8 Norte 21 Nordeste 0 -- -- 64
2019-12-04 14:00:00 12.6 4 Norte 15 Nordeste 0 -- -- 70
2019-12-04 13:00:00 11.1 4 Nordeste 13 Noroeste 0 -- -- 76
2019-12-04 12:00:00 9.6 3 Noroeste 8 Nordeste 0 -- -- 80
2019-12-04 11:00:00 8 2 Norte 4 Norte 0 -- -- 87
2019-12-04 10:00:00 5.6 0 Calma 4 Sur 0 -- -- 95
2019-12-04 09:00:00 3.3 0 Calma 6 Sur 0 -- -- 95
2019-12-04 08:00:00 3.9 4 Sudoeste 11 Sudoeste 0 -- -- 93
2019-12-04 07:00:00 5.1 5 Oeste 14 Oeste 0 -- -- 90
2019-12-04 06:00:00 4.4 0 Calma 4 Oeste 0 -- -- 92
2019-12-04 05:00:00 5 0 Calma 6 Sur 0 -- -- 91
2019-12-04 04:00:00 5.5 4 Sudoeste 11 Oeste 0 -- -- 90
2019-12-04 03:00:00 5.8 0 Calma 8 Sudoeste 0 -- -- 88
2019-12-04 02:00:00 6 0 Calma 5 Noroeste 0 -- -- 89
2019-12-04 01:00:00 5.7 0 Calma 10 Sur 0 -- -- 91
2019-12-04 00:00:00 6.5 3 Sudoeste 6 Sur 0 -- -- 86
2019-12-03 23:00:00 6.5 0 Calma 8 Sur 0 -- -- 89
2019-12-03 22:00:00 6.2 2 Sur 7 Sur 0 -- -- 88
2019-12-03 21:00:00 7.2 4 Sudeste 8 Este 0 -- -- 83
2019-12-03 20:00:00 7.5 4 Sudeste 8 Este 0 -- -- 82
2019-12-03 19:00:00 8.3 5 Sudeste 7 Sudeste 0 -- -- 80
2019-12-03 18:00:00 10.8 3 Nordeste 18 Nordeste 0 -- -- 71
2019-12-03 17:00:00 12.2 10 Nordeste 23 Nordeste 0 -- -- 64
2019-12-03 16:00:00 12.7 12 Nordeste 24 Nordeste 0 -- -- 62
2019-12-03 15:00:00 12.8 11 Nordeste 24 Nordeste 0 -- -- 62
2019-12-03 14:00:00 12.4 10 Nordeste 22 Norte 0 -- -- 61
2019-12-03 13:00:00 11.7 9 Nordeste 21 Norte 0 -- -- 65
2019-12-03 12:00:00 10.3 12 Nordeste 19 Nordeste 0 -- -- 67
2019-12-03 11:00:00 7.8 8 Oeste 12 Oeste 0 -- -- 76
2019-12-03 10:00:00 5.7 6 Oeste 14 Oeste 0 -- -- 82
2019-12-03 09:00:00 3.3 5 Oeste 12 Oeste 0 -- -- 92
2019-12-03 08:00:00 3.6 0 Calma 6 Oeste 0 -- -- 89
2019-12-03 07:00:00 4 0 Calma 5 Sudeste 0 -- -- 88
2019-12-03 06:00:00 4.4 0 Calma 6 Oeste 0 -- -- 88
2019-12-03 05:00:00 5.5 0 Calma 13 Oeste 0 -- -- 84
2019-12-03 04:00:00 6.4 3 Oeste 12 Oeste 0 -- -- 81
2019-12-03 03:00:00 5.7 3 Sudoeste 12 Oeste 0 -- -- 86
2019-12-03 02:00:00 6.3 2 Noroeste 8 Nordeste 0 -- -- 84
2019-12-03 01:00:00 7.6 2 Nordeste 12 Este 0 -- -- 81
2019-12-03 00:00:00 8.3 3 Sudeste 18 Este 0 -- -- 79
2019-12-02 23:00:00 10 7 Este 17 Nordeste 0 -- -- 72
2019-12-02 22:00:00 10.2 3 Sudeste 11 Este 0 -- -- 72
2019-12-02 21:00:00 11.1 6 Este 11 Este 0 -- -- 72
2019-12-02 20:00:00 11.2 4 Este 10 Este 0 -- -- 73
2019-12-02 19:00:00 11.6 5 Nordeste 19 Nordeste 0 -- -- 69
2019-12-02 18:00:00 12.1 9 Nordeste 28 Nordeste 0 -- -- 65
2019-12-02 17:00:00 12.7 14 Nordeste 33 Nordeste 0 -- -- 61
2019-12-02 16:00:00 13.3 14 Nordeste 34 Nordeste 0 -- -- 59
2019-12-02 15:00:00 13.5 13 Nordeste 41 Nordeste 0 -- -- 62
2019-12-02 14:00:00 13.4 19 Este 45 Nordeste 0 -- -- 58
2019-12-02 13:00:00 12.6 14 Nordeste 39 Nordeste 0 -- -- 64
2019-12-02 12:00:00 11.9 17 Nordeste 41 Nordeste 0 -- -- 68
2019-12-02 11:00:00 10.7 18 Nordeste 30 Nordeste 0 -- -- 75
2019-12-02 10:00:00 9.3 9 Nordeste 23 Nordeste 0 -- -- 81
2019-12-02 09:00:00 8.9 10 Nordeste 25 Nordeste 0 -- -- 84
2019-12-02 08:00:00 8.2 8 Este 24 Nordeste 0 -- -- 86
2019-12-02 07:00:00 8.8 12 Nordeste 28 Nordeste 0 -- -- 85
2019-12-02 06:00:00 8.4 11 Nordeste 24 Este 0 -- -- 89
2019-12-02 05:00:00 8.7 10 Nordeste 30 Nordeste 0 -- -- 90
2019-12-02 04:00:00 8.6 10 Nordeste 22 Nordeste 0 -- -- 93
2019-12-02 03:00:00 8.4 0 Calma 5 Este 0 -- -- 95
2019-12-02 02:00:00 8.3 3 Este 9 Este 0 -- -- 93
2019-12-02 01:00:00 7.7 4 Este 6 Sudeste 0 -- -- 96
2019-12-02 00:00:00 7 2 Sudeste 4 Este 0 -- -- 95
2019-12-01 23:00:00 8.1 2 Este 6 Oeste 0 -- -- 97
2019-12-01 22:00:00 7.7 0 Calma 4 Oeste 0 -- -- 97
2019-12-01 21:00:00 8.5 2 Nordeste 6 Este 0 -- -- 96
2019-12-01 20:00:00 8.6 4 Este 7 Este 0 -- -- 96
2019-12-01 19:00:00 9.4 0 Calma 15 Este 0 -- -- 95
2019-12-01 18:00:00 9.9 8 Este 17 Este 1.2 -- -- 94
2019-12-01 17:00:00 10.5 7 Este 16 Este 1.8 -- -- 95
2019-12-01 16:00:00 11.2 9 Sudeste 20 Sur 1.2 -- -- 91
2019-12-01 15:00:00 11.5 7 Sur 30 Sudoeste 1.4 -- -- 86
2019-12-01 14:00:00 12.6 16 Oeste 39 Oeste 0 -- -- 81
2019-12-01 13:00:00 13.5 15 Sudoeste 27 Sudoeste 0 -- -- 75
2019-12-01 12:00:00 11.9 16 Oeste 25 Sudoeste 0 -- -- 81
2019-12-01 11:00:00 11.5 11 Sudoeste 28 Sudoeste 0 -- -- 90
2019-12-01 10:00:00 10.7 11 Sudoeste 26 Sudoeste 0 -- -- 95
2019-12-01 09:00:00 10.4 12 Sudoeste 30 Sudoeste 0.4 -- -- 95
2019-12-01 08:00:00 10.4 15 Sur 31 Sudoeste 0 -- -- 95
2019-12-01 07:00:00 10.2 14 Sudoeste 23 Sur 0 -- -- 95
2019-12-01 06:00:00 10.3 14 Sur 23 Sur 0.4 -- -- 94
2019-12-01 05:00:00 10.3 13 Sudoeste 29 Sur 0 -- -- 94
2019-12-01 04:00:00 9.5 11 Sudoeste 29 Sur 0 -- -- 96
2019-12-01 03:00:00 9.5 14 Sudoeste 28 Sur 0 -- -- 95
2019-12-01 02:00:00 9.2 12 Sur 23 Sur 0 -- -- 92
2019-12-01 01:00:00 9.7 17 Sudoeste 27 Sudoeste 0 -- -- 87
2019-12-01 00:00:00 10.3 16 Sudoeste 25 Sudoeste 0 -- -- 87
2019-11-30 23:00:00 10.2 17 Sudoeste 23 Sudoeste 0 -- -- 87
2019-11-30 22:00:00 11 16 Sudoeste 24 Sudoeste 0 -- -- 89
2019-11-30 21:00:00 11.4 14 Oeste 26 Sudoeste 0 -- -- 90
2019-11-30 20:00:00 12 15 Sudoeste 24 Oeste 0 -- -- 87
2019-11-30 19:00:00 12.1 12 Oeste 29 Oeste 0.2 -- -- 91
2019-11-30 18:00:00 12.8 16 Oeste 32 Oeste 3.2 -- -- 93
2019-11-30 17:00:00 14.3 16 Sudoeste 31 Sur 0.2 -- -- 93
2019-11-30 16:00:00 14.7 13 Sudoeste 30 Sur 0 -- -- 92
2019-11-30 15:00:00 14.5 14 Sudoeste 26 Sur 0 -- -- 92
2019-11-30 14:00:00 15.4 15 Sudoeste 28 Sur 0 -- -- 85
2019-11-30 13:00:00 14.9 15 Sur 33 Sur 0 -- -- 85
2019-11-30 12:00:00 14.1 21 Sur 35 Sur 0 -- -- 87
2019-11-30 11:00:00 13.9 17 Sur 29 Sudoeste 0 -- -- 87
2019-11-30 10:00:00 13.6 14 Sur 35 Sur 0 -- -- 89
2019-11-30 09:00:00 13.5 24 Sur 35 Sur 0 -- -- 87
2019-11-30 08:00:00 12.5 12 Sur 23 Sur 0 -- -- 93
2019-11-30 07:00:00 13.1 12 Sudoeste 29 Sur 0 -- -- 91
2019-11-30 06:00:00 13.4 14 Sur 22 Sudoeste 0 -- -- 89
2019-11-30 05:00:00 14 13 Sudoeste 19 Sudoeste 0 -- -- 82
2019-11-30 04:00:00 13.8 12 Sudoeste 19 Sudoeste 0 -- -- 87
2019-11-30 03:00:00 13.4 10 Sudoeste 26 Sur 0 -- -- 92
2019-11-30 02:00:00 13.5 9 Sudoeste 21 Sur 0 -- -- 92
2019-11-30 01:00:00 14.3 10 Sudoeste 17 Sudoeste 0 -- -- 88
2019-11-30 00:00:00 14.5 11 Sudoeste 17 Sur 0 -- -- 90
2019-11-29 23:00:00 14.6 9 Sudoeste 19 Sur 0 -- -- 90
2019-11-29 22:00:00 14.7 10 Sur 17 Sudoeste 0 -- -- 90
2019-11-29 21:00:00 14.8 8 Sur 21 Sur 0 -- -- 90
2019-11-29 20:00:00 15.1 13 Sur 28 Sur 0 -- -- 88
2019-11-29 19:00:00 15 18 Sur 28 Sudeste 0 -- -- 88
2019-11-29 18:00:00 15.1 13 Sur 26 Sur 0 -- -- 89
2019-11-29 17:00:00 16.1 12 Sur 24 Sur 0 -- -- 86
2019-11-29 16:00:00 16.3 11 Sur 22 Sudoeste 0 -- -- 84
2019-11-29 15:00:00 16.1 12 Sur 23 Sur 0 -- -- 85
2019-11-29 14:00:00 16.2 15 Sur 27 Sur 0 -- -- 84
2019-11-29 13:00:00 16.2 17 Sur 26 Sudoeste 0 -- -- 84
2019-11-29 12:00:00 15.5 15 Sur 29 Sur 0 -- -- 87
2019-11-29 11:00:00 14.8 18 Sur 29 Sur 0 -- -- 89
2019-11-29 10:00:00 14.1 17 Sur 29 Sur 0 -- -- 92
2019-11-29 09:00:00 13.7 15 Sur 32 Sur 0 -- -- 93
2019-11-29 08:00:00 13.6 21 Sur 35 Sur 0 -- -- 94
2019-11-29 07:00:00 13.6 18 Sur 32 Sur 0 -- -- 93
2019-11-29 06:00:00 13.6 20 Sur 33 Sur 0 -- -- 93
2019-11-29 05:00:00 13.7 13 Sudoeste 32 Sudoeste 0 -- -- 92
2019-11-29 04:00:00 13.6 15 Sur 31 Sudoeste 0 -- -- 93
2019-11-29 03:00:00 13.6 21 Sur 33 Sur 0 -- -- 93
2019-11-29 02:00:00 13.6 18 Sur 30 Sur 0 -- -- 94
2019-11-29 01:00:00 13.7 15 Sudoeste 33 Sur 0 -- -- 93
2019-11-29 00:00:00 13.8 18 Sur 30 Sur 0 -- -- 91
2019-11-28 23:00:00 13.9 14 Sur 24 Sur 0 -- -- 91
2019-11-28 22:00:00 14 13 Sur 25 Sur 0 -- -- 91
2019-11-28 21:00:00 14.2 10 Sur 25 Sudoeste 0 -- -- 89
2019-11-28 20:00:00 13.9 4 Sur 24 Sudoeste 0 -- -- 91
2019-11-28 19:00:00 14.3 8 Sudoeste 23 Sur 0 -- -- 90
2019-11-28 18:00:00 14.8 13 Sur 30 Sudoeste 0 -- -- 88
2019-11-28 17:00:00 15.6 13 Sudoeste 31 Sudoeste 0 -- -- 81
2019-11-28 16:00:00 15.3 15 Sudoeste 32 Sudoeste 0 -- -- 85
2019-11-28 15:00:00 15 17 Sur 30 Sur 0 -- -- 85
2019-11-28 14:00:00 14.2 14 Sudoeste 31 Sudoeste 0 -- -- 86
2019-11-28 13:00:00 14 15 Sudoeste 32 Sur 0 -- -- 88
2019-11-28 12:00:00 13 21 Sur 41 Sur 0 -- -- 89
2019-11-28 11:00:00 12.4 22 Sur 38 Sudeste 0 -- -- 92
2019-11-28 10:00:00 11.4 24 Sur 40 Sudeste 0 -- -- 94
2019-11-28 09:00:00 10.9 19 Sur 30 Sur 0 -- -- 94
2019-11-28 08:00:00 11.4 16 Sur 32 Sur 0 -- -- 92
2019-11-28 07:00:00 11.3 16 Sur 26 Sur 0 -- -- 93
2019-11-28 06:00:00 11.8 14 Sur 24 Sudeste 0 -- -- 89
2019-11-28 05:00:00 11 14 Sudoeste 24 Sudoeste 0 -- -- 94
2019-11-28 04:00:00 10.6 15 Sudoeste 22 Sudoeste 0 -- -- 92
2019-11-28 03:00:00 10.4 15 Sudoeste 24 Sudoeste 0 -- -- 92
2019-11-28 02:00:00 10.7 16 Sudoeste 27 Sur 0 -- -- 90
2019-11-28 01:00:00 11.4 12 Sudoeste 22 Sudoeste 0 -- -- 85
2019-11-28 00:00:00 11 14 Sudoeste 19 Sudoeste 0 -- -- 88
2019-11-27 23:00:00 11.9 11 Sudoeste 25 Sudoeste 0 -- -- 81
2019-11-27 22:00:00 12 13 Sudoeste 23 Sudoeste 0 -- -- 82
2019-11-27 21:00:00 12.1 11 Sudoeste 20 Sudoeste 0 -- -- 83
2019-11-27 20:00:00 13.3 11 Sudoeste 20 Sudoeste 0 -- -- 78
2019-11-27 19:00:00 13.9 14 Sudoeste 22 Sudoeste 0 -- -- 73
2019-11-27 18:00:00 14.1 10 Sudoeste 22 Oeste 0 -- -- 72
2019-11-27 17:00:00 14.7 12 Sudoeste 23 Sudoeste 0 -- -- 67
2019-11-27 16:00:00 15 15 Oeste 26 Oeste 0 -- -- 62
2019-11-27 15:00:00 15.2 13 Sudoeste 31 Oeste 0 -- -- 65
2019-11-27 14:00:00 15.4 16 Oeste 27 Sudoeste 0 -- -- 64
2019-11-27 06:00:00 -- -- -- -- -- -- -- -- --
2019-11-27 05:00:00 11.9 16 Sudoeste 25 Oeste 0.2 -- -- 85
2019-11-27 04:00:00 11.9 13 Sudoeste 26 Oeste 0 -- -- 88
2019-11-27 03:00:00 12.8 17 Oeste 27 Oeste 0 -- -- 90
2019-11-27 02:00:00 13.5 15 Sudoeste 26 Sudoeste 0 -- -- 90
2019-11-27 01:00:00 13.5 15 Sudoeste 31 Sudoeste 0.4 -- -- 91
2019-11-27 00:00:00 13.2 14 Oeste 33 Sudoeste 0.2 -- -- 94
2019-11-26 23:00:00 13.3 9 Sudoeste 25 Sudoeste 0 -- -- 93
2019-11-26 22:00:00 13.7 17 Sudoeste 31 Sudoeste 0.2 -- -- 91
2019-11-26 21:00:00 14 19 Sudoeste 32 Sudoeste 0 -- -- 92
2019-11-26 20:00:00 14 14 Sudoeste 24 Sudoeste 0 -- -- 91
2019-11-26 19:00:00 14.9 13 Sudoeste 33 Sudoeste 0 -- -- 92
2019-11-26 18:00:00 15 19 Sudoeste 36 Sudoeste 0.4 -- -- 94
2019-11-26 17:00:00 15.1 21 Sudoeste 37 Sudoeste 0.2 -- -- 93
2019-11-26 16:00:00 15.6 19 Sudoeste 45 Sudoeste 0.8 -- -- 92
2019-11-26 15:00:00 15.3 19 Sudoeste 47 Sudoeste 1.4 -- -- 93
2019-11-26 14:00:00 16.1 17 Sudoeste 47 Sur 0 -- -- 88
2019-11-26 13:00:00 15.7 14 Sudoeste 35 Sudoeste 0 -- -- 90
2019-11-26 12:00:00 15.4 15 Sur 32 Sur 0 -- -- 92
2019-11-26 11:00:00 15 15 Sur 30 Sudoeste 0 -- -- 92
2019-11-26 10:00:00 15 11 Sur 24 Sur 0 -- -- 92
2019-11-26 09:00:00 14.5 13 Sur 25 Sur 0.2 -- -- 94
2019-11-26 08:00:00 14.2 15 Sur 29 Sur 0 -- -- 95
2019-11-26 07:00:00 13.8 12 Sur 24 Sur 0 -- -- 95
2019-11-26 06:00:00 13.8 10 Sur 33 Sudeste 0 -- -- 95
2019-11-26 05:00:00 13.9 19 Sur 40 Sur 0 -- -- 94
2019-11-26 04:00:00 13.8 22 Sur 36 Sur 0 -- -- 93
2019-11-26 03:00:00 13.7 12 Sur 26 Sur 0 -- -- 90
2019-11-26 02:00:00 13.8 15 Sudoeste 28 Sur 0 -- -- 89
2019-11-26 01:00:00 13.6 21 Sur 28 Sur 0 -- -- 86
2019-11-26 00:00:00 13.3 15 Sudoeste 20 Sudoeste 0 -- -- 86
2019-11-25 23:00:00 13.8 12 Sudoeste 21 Sudoeste 0 -- -- 85
2019-11-25 22:00:00 14.7 14 Sudoeste 23 Sudoeste 0 -- -- 81
2019-11-25 21:00:00 15.5 13 Sudoeste 17 Sudoeste 0 -- -- 76
2019-11-25 20:00:00 15.7 10 Sudoeste 19 Oeste 0 -- -- 76
2019-11-25 19:00:00 15.4 9 Sudoeste 16 Oeste 0 -- -- 77
2019-11-25 18:00:00 16.1 10 Sudoeste 27 Sudoeste 0 -- -- 72
2019-11-25 17:00:00 17 13 Oeste 23 Oeste 0 -- -- 70
2019-11-25 16:00:00 17.4 18 Oeste 27 Oeste 0 -- -- 70
2019-11-25 15:00:00 17.4 17 Oeste 31 Oeste 0 -- -- 71
2019-11-25 14:00:00 16.6 15 Oeste 26 Oeste 0 -- -- 79
2019-11-25 13:00:00 16.6 13 Oeste 25 Oeste 0 -- -- 77
2019-11-25 12:00:00 15.9 15 Oeste 28 Oeste 0 -- -- 80
2019-11-25 11:00:00 15.4 16 Oeste 30 Oeste 0 -- -- 83
2019-11-25 10:00:00 14.6 14 Sudoeste 28 Sudoeste 0 -- -- 87
2019-11-25 09:00:00 14.5 12 Sudoeste 23 Sudoeste 0 -- -- 89
2019-11-25 08:00:00 13.8 16 Sudoeste 29 Sudoeste 0.2 -- -- 95
2019-11-25 07:00:00 13.6 17 Sudoeste 27 Sur 0 -- -- 95
2019-11-25 06:00:00 13.3 12 Sudoeste 25 Sur 0.2 -- -- 95
2019-11-25 05:00:00 12.8 12 Sudoeste 43 Sur 0 -- -- 95
2019-11-25 04:00:00 12.7 33 Sur 50 Sur 0 -- -- 94
2019-11-25 03:00:00 12.5 36 Sur 53 Sur 0 -- -- 94
2019-11-25 02:00:00 12.3 35 Sur 49 Sur 0 -- -- 94
2019-11-25 01:00:00 12.2 22 Sur 39 Sur 0 -- -- 94
2019-11-25 00:00:00 12.3 21 Sur 33 Sur 0 -- -- 93
2019-11-24 23:00:00 12.6 12 Sudoeste 27 Sudoeste 0 -- -- 87
2019-11-24 22:00:00 12.7 13 Sur 39 Sur 0 -- -- 86
2019-11-24 21:00:00 12.9 26 Sur 38 Sur 0 -- -- 83
2019-11-24 20:00:00 12.9 15 Sur 24 Sudeste 0 -- -- 81
2019-11-24 19:00:00 12.9 8 Sudoeste 16 Sudoeste 0 -- -- 80
2019-11-24 18:00:00 13.3 8 Sudoeste 22 Sudoeste 0 -- -- 78
2019-11-24 17:00:00 13.8 14 Sudoeste 25 Sudoeste 0 -- -- 73
2019-11-24 16:00:00 13.9 15 Sudoeste 27 Sudoeste 0 -- -- 71
2019-11-24 15:00:00 13.8 12 Sudoeste 25 Sur 0 -- -- 73
2019-11-24 14:00:00 12.1 16 Sudoeste 23 Sudoeste 0 -- -- 83
2019-11-24 13:00:00 11.4 13 Sudoeste 24 Sudoeste 0 -- -- 82
2019-11-24 12:00:00 11.5 14 Sudoeste 23 Sur 0 -- -- 81
2019-11-24 11:00:00 10.5 5 Sudoeste 13 Sudoeste 0 -- -- 85
2019-11-24 10:00:00 8.4 10 Sudoeste 18 Sudoeste 0 -- -- 87
2019-11-24 09:00:00 7.7 11 Sudoeste 23 Sudoeste 0 -- -- 91
2019-11-24 08:00:00 8.4 9 Sudoeste 19 Sudoeste 0 -- -- 89
2019-11-24 07:00:00 8.5 12 Sudoeste 20 Sudoeste 0 -- -- 89
2019-11-24 06:00:00 8.5 12 Sudoeste 21 Oeste 0 -- -- 88
2019-11-24 05:00:00 8.8 15 Sudoeste 24 Sudoeste 0 -- -- 87
2019-11-24 04:00:00 8.4 13 Sudoeste 22 Sudoeste 0 -- -- 85
2019-11-24 03:00:00 8.3 11 Sudoeste 18 Oeste 0 -- -- 86
2019-11-24 02:00:00 8.4 12 Oeste 19 Oeste 0 -- -- 85
2019-11-24 01:00:00 8.7 9 Sudoeste 20 Oeste 0 -- -- 80
2019-11-24 00:00:00 9.1 12 Sudoeste 24 Oeste 0 -- -- 79
2019-11-23 23:00:00 9.2 13 Sudoeste 24 Sudoeste 0 -- -- 79
2019-11-23 22:00:00 9.3 14 Sudoeste 23 Sudoeste 0 -- -- 79
2019-11-23 21:00:00 9.8 15 Oeste 23 Oeste 0 -- -- 75
2019-11-23 20:00:00 10 14 Oeste 21 Oeste 0 -- -- 74
2019-11-23 19:00:00 10.3 9 Oeste 23 Oeste 0 -- -- 71
2019-11-23 18:00:00 11.8 11 Oeste 32 Oeste 0 -- -- 63
2019-11-23 17:00:00 13.6 15 Oeste 31 Oeste 0 -- -- 57
2019-11-23 16:00:00 14.3 20 Noroeste 32 Oeste 0 -- -- 56
2019-11-23 15:00:00 14.2 17 Noroeste 34 Oeste 0 -- -- 58
2019-11-23 14:00:00 13.8 19 Oeste 36 Noroeste 0 -- -- 59
2019-11-23 13:00:00 12.7 18 Noroeste 35 Oeste 0 -- -- 64
2019-11-23 12:00:00 12.5 17 Oeste 30 Oeste 0 -- -- 64
2019-11-23 11:00:00 11.2 18 Oeste 33 Oeste 0 -- -- 71
2019-11-23 10:00:00 10 18 Oeste 32 Oeste 0 -- -- 78
2019-11-23 09:00:00 8.7 17 Oeste 35 Oeste 0 -- -- 82
2019-11-23 08:00:00 8.3 14 Oeste 27 Oeste 0 -- -- 85
2019-11-23 07:00:00 8.6 14 Oeste 27 Oeste 0 -- -- 86
2019-11-23 06:00:00 8.9 15 Oeste 37 Oeste 0 -- -- 86
2019-11-23 05:00:00 9.2 19 Oeste 36 Oeste 0 -- -- 85
2019-11-23 04:00:00 9.2 16 Oeste 38 Oeste 0 -- -- 84
2019-11-23 03:00:00 9.5 16 Oeste 42 Oeste 0.2 -- -- 87
2019-11-23 02:00:00 9.6 23 Oeste 44 Oeste 0.2 -- -- 86
2019-11-23 01:00:00 10.4 23 Oeste 55 Oeste 0.2 -- -- 86
2019-11-23 00:00:00 10.9 24 Oeste 53 Oeste 0.4 -- -- 87
2019-11-22 23:00:00 12.2 26 Oeste 57 Oeste 0 -- -- 78
2019-11-22 22:00:00 12.5 28 Oeste 54 Oeste 0 -- -- 78
2019-11-22 21:00:00 12.2 24 Oeste 53 Sudoeste 0 -- -- 77
2019-11-22 20:00:00 12.4 25 Oeste 39 Oeste 0 -- -- 78
2019-11-22 19:00:00 12.7 23 Sudoeste 53 Oeste 0 -- -- 77
2019-11-22 18:00:00 14.6 22 Oeste 51 Oeste 0 -- -- 69
2019-11-22 17:00:00 15.1 32 Oeste 56 Oeste 0 -- -- 67
2019-11-22 16:00:00 15.6 31 Oeste 51 Sudoeste 0 -- -- 62
2019-11-22 15:00:00 16.2 32 Oeste 61 Sudoeste 0 -- -- 62
2019-11-22 14:00:00 16.6 23 Oeste 45 Sudoeste 0 -- -- 79
2019-11-22 13:00:00 13.8 13 Oeste 37 Sur 7.2 -- -- 96
2019-11-22 12:00:00 13.7 18 Sur 53 Sur 0.8 -- -- 95
2019-11-22 11:00:00 13.4 33 Sur 57 Sur 2.6 -- -- 93
2019-11-22 10:00:00 12.3 22 Sur 49 Sur 5 -- -- 94
2019-11-22 09:00:00 12.1 27 Sur 53 Sur 4.2 -- -- 93
2019-11-22 08:00:00 11.6 21 Sur 41 Sur 0.8 -- -- 93
2019-11-22 07:00:00 11.6 22 Sur 43 Sur 1.6 -- -- 93
2019-11-22 06:00:00 11.6 22 Sur 37 Sur 1 -- -- 93
2019-11-22 05:00:00 11.2 17 Sur 34 Sur 0 -- -- 94
2019-11-22 04:00:00 11 17 Sur 35 Sudoeste 0.2 -- -- 93
2019-11-22 03:00:00 10.9 10 Sur 22 Sudoeste 0 -- -- 94
2019-11-22 02:00:00 11.1 8 Sudoeste 19 Sur 0 -- -- 94
2019-11-22 01:00:00 11.2 4 Sudoeste 21 Sur 0 -- -- 94
2019-11-22 00:00:00 11.4 12 Sur 24 Sudeste 0 -- -- 92
2019-11-21 23:00:00 11.8 14 Sur 24 Sur 0 -- -- 91
2019-11-21 22:00:00 11.9 14 Sudeste 25 Sur 0 -- -- 89
2019-11-21 21:00:00 11.7 12 Sur 23 Sur 0 -- -- 90
2019-11-21 20:00:00 11.7 13 Sur 22 Sur 0 -- -- 90
2019-11-21 19:00:00 12 12 Sur 19 Sur 0 -- -- 89
2019-11-21 18:00:00 11.5 6 Sudoeste 15 Sudoeste 0.2 -- -- 89
2019-11-21 17:00:00 11.8 11 Sudoeste 21 Sur 1 -- -- 87
2019-11-21 16:00:00 12.5 8 Sur 12 Oeste 1.2 -- -- 89
2019-11-21 15:00:00 13.6 6 Sur 17 Sur 0 -- -- 80
2019-11-21 14:00:00 13.2 11 Sur 21 Sur 0 -- -- 82
2019-11-21 13:00:00 12.8 11 Sudoeste 17 Sudoeste 0 -- -- 86
2019-11-21 12:00:00 12.1 9 Sudoeste 20 Sur 0 -- -- 89
2019-11-21 11:00:00 11.2 13 Sudoeste 24 Sur 0 -- -- 92
2019-11-21 10:00:00 10.8 14 Sur 25 Sur 0 -- -- 92
2019-11-21 09:00:00 10.3 9 Sur 23 Sur 0.6 -- -- 94
2019-11-21 08:00:00 10.1 14 Sur 23 Sur 0.4 -- -- 95
2019-11-21 07:00:00 10.1 14 Sur 26 Sudoeste 0.8 -- -- 95
2019-11-21 06:00:00 9.8 15 Sur 26 Sur 0.6 -- -- 96
2019-11-21 05:00:00 9.7 15 Sur 26 Sur 0 -- -- 95
2019-11-21 04:00:00 9.8 14 Sur 25 Sur 0 -- -- 95
2019-11-21 03:00:00 9.7 6 Sudoeste 22 Sur 0 -- -- 95
2019-11-21 02:00:00 9.6 12 Sur 28 Sur 0 -- -- 94
2019-11-21 01:00:00 9.1 15 Sur 30 Sur 0 -- -- 94
2019-11-21 00:00:00 9.3 15 Sur 27 Sur 0 -- -- 94
2019-11-20 23:00:00 9.8 13 Sur 22 Sur 0 -- -- 92
2019-11-20 22:00:00 9.5 7 Sur 16 Sur 0 -- -- 93
2019-11-20 21:00:00 9.3 3 Noroeste 9 Noroeste 0.2 -- -- 94
2019-11-20 20:00:00 9.5 0 Calma 14 Sur 0 -- -- 91
2019-11-20 19:00:00 9.6 10 Sudoeste 15 Sudoeste 0 -- -- 93
2019-11-20 18:00:00 9.7 10 Sudoeste 16 Sudoeste 0 -- -- 91
2019-11-20 17:00:00 9.8 10 Sur 26 Sudoeste 0 -- -- 90
2019-11-20 16:00:00 9.5 12 Sudoeste 24 Sur 0 -- -- 92
2019-11-20 15:00:00 9 10 Sur 34 Sudeste 0 -- -- 92
2019-11-20 14:00:00 8.9 11 Sudeste 24 Sudeste 0 -- -- 91
2019-11-20 13:00:00 8.6 14 Sudeste 27 Sudeste 0.8 -- -- 91
2019-11-20 12:00:00 8.4 9 Sudeste 21 Este 0.8 -- -- 91
2019-11-20 11:00:00 8 8 Sur 28 Sur 0.4 -- -- 91
2019-11-20 10:00:00 7.9 9 Este 27 Sudeste 0 -- -- 90
2019-11-20 09:00:00 8 14 Este 32 Sudeste 0 -- -- 89
2019-11-20 08:00:00 7.9 11 Sudeste 30 Sudeste 1 -- -- 89
2019-11-20 07:00:00 7.9 9 Sur 19 Sudeste 3.2 -- -- 88
2019-11-20 06:00:00 7.9 0 Calma 15 Este 2.2 -- -- 92
2019-11-20 05:00:00 8.3 7 Sudeste 22 Sudeste 0 -- -- 89
2019-11-20 04:00:00 9.3 3 Este 26 Este 0 -- -- 75
2019-11-20 03:00:00 9.4 7 Sudeste 28 Sudeste 0 -- -- 72
2019-11-20 02:00:00 9.5 18 Sur 31 Sudeste 0 -- -- 76
2019-11-20 01:00:00 9.5 21 Sur 31 Sur 0 -- -- 76
2019-11-20 00:00:00 9.5 15 Sur 23 Sudeste 0 -- -- 79
2019-11-19 23:00:00 9.3 10 Sur 23 Sudeste 0 -- -- 79
2019-11-19 22:00:00 9.5 14 Sur 20 Sur 0 -- -- 79
2019-11-19 21:00:00 9.4 12 Sur 18 Sur 0 -- -- 80
2019-11-19 20:00:00 9.4 14 Sur 19 Sur 0 -- -- 79
2019-11-19 19:00:00 9.6 13 Sur 18 Sur 0 -- -- 79
2019-11-19 18:00:00 10.6 5 Sudoeste 15 Sudoeste 0 -- -- 72
2019-11-19 17:00:00 11.6 6 Sudoeste 14 Sur 0 -- -- 69
2019-11-19 16:00:00 11.3 9 Sur 14 Sudoeste 0 -- -- 68
2019-11-19 15:00:00 11.8 5 Sur 15 Sur 0 -- -- 66
2019-11-19 14:00:00 11.8 6 Sudeste 14 Sur 0 -- -- 64
2019-11-19 13:00:00 10.5 3 Noroeste 13 Este 0 -- -- 72
2019-11-19 12:00:00 6.8 3 Norte 5 Nordeste 0 -- -- 88
2019-11-19 11:00:00 5.1 0 Calma 2 Norte 0 -- -- 93
2019-11-19 10:00:00 3.1 0 Calma 2 Noroeste 0 -- -- 95
2019-11-19 09:00:00 1.9 0 Calma 0 Calma 0 -- -- 95
2019-11-19 08:00:00 1.6 0 Calma 3 Sur 0 -- -- 93
2019-11-19 07:00:00 2.4 0 Calma 5 Sur 0 -- -- 92
2019-11-19 06:00:00 3.5 0 Calma 6 Sudoeste 0 -- -- 90
2019-11-19 05:00:00 4.4 3 Sudoeste 6 Oeste 0 -- -- 89
2019-11-19 04:00:00 5.3 0 Calma 10 Sudoeste 0 -- -- 84
2019-11-19 03:00:00 4.5 5 Oeste 9 Oeste 0 -- -- 87
2019-11-19 02:00:00 5.1 2 Sudoeste 10 Oeste 0 -- -- 83
2019-11-19 01:00:00 5.1 3 Oeste 13 Sudoeste 0 -- -- 83
2019-11-19 00:00:00 6.1 0 Calma 11 Sur 0 -- -- 80
2019-11-18 23:00:00 5.5 2 Oeste 10 Sur 0 -- -- 81
2019-11-18 22:00:00 6.2 5 Sudoeste 9 Sur 0 -- -- 80
2019-11-18 21:00:00 7.1 2 Oeste 11 Oeste 0 -- -- 78
2019-11-18 20:00:00 7.2 0 Calma 7 Sur 0 -- -- 79
2019-11-18 19:00:00 8.9 3 Oeste 12 Oeste 0 -- -- 71
2019-11-18 18:00:00 11.2 4 Oeste 12 Noroeste 0 -- -- 63
2019-11-18 17:00:00 13.9 9 Noroeste 18 Norte 0 -- -- 51
2019-11-18 16:00:00 14.2 9 Noroeste 23 Noroeste 0 -- -- 52
2019-11-18 15:00:00 13.8 10 Noroeste 19 Noroeste 0 -- -- 55
2019-11-18 14:00:00 13.1 8 Noroeste 20 Oeste 0 -- -- 59
2019-11-18 13:00:00 12.1 9 Noroeste 22 Oeste 0 -- -- 64
2019-11-18 12:00:00 10.7 12 Noroeste 19 Noroeste 0 -- -- 70
2019-11-18 11:00:00 9.4 9 Noroeste 19 Noroeste 0 -- -- 75
2019-11-18 10:00:00 7.1 6 Oeste 16 Oeste 0 -- -- 82
2019-11-18 09:00:00 5.5 5 Oeste 15 Sudoeste 0 -- -- 86
2019-11-18 08:00:00 5.2 5 Sudoeste 18 Sudoeste 0 -- -- 87
2019-11-18 07:00:00 5.2 5 Oeste 16 Oeste 0 -- -- 87
2019-11-18 06:00:00 5.7 11 Oeste 17 Sudoeste 0 -- -- 86
2019-11-18 05:00:00 6.2 7 Sudoeste 20 Oeste 0 -- -- 84
2019-11-18 04:00:00 6.8 13 Sudoeste 26 Oeste 0 -- -- 83
2019-11-18 03:00:00 7 15 Oeste 20 Oeste 0 -- -- 86
2019-11-18 02:00:00 7 5 Oeste 17 Oeste 0 -- -- 88
2019-11-18 01:00:00 8.1 5 Noroeste 13 Oeste 0 -- -- 91
2019-11-18 00:00:00 9.5 5 Oeste 13 Noroeste 0 -- -- 91
2019-11-17 23:00:00 10.7 9 Noroeste 21 Noroeste 0 -- -- 93
2019-11-17 22:00:00 11.5 7 Oeste 27 Oeste 0 -- -- 89
2019-11-17 21:00:00 12.5 17 Oeste 35 Oeste 0 -- -- 89
2019-11-17 20:00:00 12.6 18 Oeste 33 Oeste 0 -- -- 90
2019-11-17 19:00:00 13.3 18 Oeste 32 Sudoeste 0 -- -- 90
2019-11-17 18:00:00 13.2 14 Sudoeste 24 Sudoeste 0.2 -- -- 92
2019-11-17 17:00:00 13.3 9 Sudoeste 23 Oeste 2 -- -- 90
2019-11-17 16:00:00 14.5 9 Sudoeste 21 Oeste 0 -- -- 84
2019-11-17 15:00:00 12.8 11 Sudoeste 19 Sudoeste 0 -- -- 91
2019-11-17 14:00:00 12.1 13 Sudoeste 22 Sudoeste 0 -- -- 91
2019-11-17 13:00:00 11.1 9 Sudoeste 20 Sudoeste 0 -- -- 92
2019-11-17 12:00:00 10 13 Sudoeste 23 Sudoeste 0 -- -- 94
2019-11-17 11:00:00 8.7 15 Sudoeste 26 Sudoeste 0 -- -- 95
2019-11-17 10:00:00 7.9 13 Sudoeste 26 Sudoeste 0.6 -- -- 94
2019-11-17 09:00:00 7.5 13 Sur 28 Sur 0.2 -- -- 95
2019-11-17 08:00:00 7.3 18 Sur 31 Sur 0 -- -- 95
2019-11-17 07:00:00 7.3 9 Sur 24 Sudoeste 0 -- -- 93
2019-11-17 06:00:00 7.1 11 Sur 28 Sur 0.8 -- -- 93
2019-11-17 05:00:00 7.1 17 Sur 27 Sur 0.4 -- -- 92
2019-11-17 04:00:00 7.7 12 Sudoeste 22 Sudoeste 0 -- -- 80
2019-11-17 03:00:00 7.7 15 Sudoeste 20 Sudoeste 0 -- -- 77
2019-11-17 02:00:00 8 7 Sudoeste 18 Sudoeste 0 -- -- 75
2019-11-17 01:00:00 7.7 10 Sudoeste 16 Oeste 0 -- -- 73
2019-11-17 00:00:00 7.8 12 Oeste 21 Oeste 0 -- -- 71
2019-11-16 23:00:00 7.6 13 Sudoeste 22 Oeste 0 -- -- 70
2019-11-16 22:00:00 8 11 Sudoeste 19 Sudoeste 0 -- -- 65
2019-11-16 21:00:00 9.1 8 Sudoeste 16 Oeste 0 -- -- 60
2019-11-16 20:00:00 9.6 12 Oeste 19 Oeste 0 -- -- 57
2019-11-16 19:00:00 7.4 6 Sudoeste 10 Sudoeste 0 -- -- 62
2019-11-16 18:00:00 10.3 4 Oeste 24 Oeste 0 -- -- 51
2019-11-16 17:00:00 13.1 9 Noroeste 22 Oeste 0 -- -- 44
2019-11-16 16:00:00 12.3 15 Noroeste 27 Oeste 0 -- -- 45
2019-11-16 15:00:00 12.7 12 Noroeste 22 Oeste 0 -- -- 45
2019-11-16 14:00:00 12.5 9 Oeste 18 Noroeste 0 -- -- 48
2019-11-16 13:00:00 11.2 9 Noroeste 18 Norte 0 -- -- 52
2019-11-16 12:00:00 9.7 9 Noroeste 16 Noroeste 0 -- -- 57
2019-11-16 11:00:00 7.5 8 Noroeste 14 Oeste 0 -- -- 68
2019-11-16 10:00:00 5.7 8 Oeste 18 Oeste 0 -- -- 72
2019-11-16 09:00:00 3.7 12 Sudoeste 23 Sudoeste 0 -- -- 78
2019-11-16 08:00:00 3.7 9 Oeste 18 Sudoeste 0 -- -- 77
2019-11-16 07:00:00 3.1 9 Sudoeste 18 Oeste 0 -- -- 79
2019-11-16 06:00:00 3.7 8 Oeste 13 Oeste 0 -- -- 77
2019-11-16 05:00:00 2.4 3 Oeste 7 Oeste 0 -- -- 82
2019-11-16 04:00:00 4.2 4 Sudoeste 15 Oeste 0 -- -- 74
2019-11-16 03:00:00 4.5 8 Oeste 19 Oeste 0 -- -- 74
2019-11-16 02:00:00 3.9 8 Oeste 14 Oeste 0 -- -- 77
2019-11-16 01:00:00 4.4 5 Oeste 18 Oeste 0 -- -- 74
2019-11-16 00:00:00 5.3 9 Oeste 21 Sudoeste 0 -- -- 70